sensor_id;sensor_type;location;lat;lon;timestamp;temperature;humidity
28460;DHT22;32528;45.712;9.192;2022-11-18T00:00:13;12.50;99.90
28460;DHT22;32528;45.712;9.192;2022-11-18T00:02:14;12.50;99.90
28460;DHT22;32528;45.712;9.192;2022-11-18T00:04:14;12.40;99.90
28460;DHT22;32528;45.712;9.192;2022-11-18T00:06:19;12.40;99.90
28460;DHT22;32528;45.712;9.192;2022-11-18T00:08:20;12.40;99.90
28460;DHT22;32528;45.712;9.192;2022-11-18T00:10:21;12.40;99.90
28460;DHT22;32528;45.712;9.192;2022-11-18T00:12:21;12.50;99.90
28460;DHT22;32528;45.712;9.192;2022-11-18T00:14:40;12.50;99.90
28460;DHT22;32528;45.712;9.192;2022-11-18T00:16:41;12.60;99.90
28460;DHT22;32528;45.712;9.192;2022-11-18T00:18:42;12.60;99.90
28460;DHT22;32528;45.712;9.192;2022-11-18T00:20:42;12.60;99.90
28460;DHT22;32528;45.712;9.192;2022-11-18T00:22:44;12.60;99.90
28460;DHT22;32528;45.712;9.192;2022-11-18T00:24:45;12.60;99.90
28460;DHT22;32528;45.712;9.192;2022-11-18T00:26:46;12.60;99.90
28460;DHT22;32528;45.712;9.192;2022-11-18T00:28:47;12.50;99.90
28460;DHT22;32528;45.712;9.192;2022-11-18T00:30:47;12.50;99.90
28460;DHT22;32528;45.712;9.192;2022-11-18T00:32:48;12.50;99.90
28460;DHT22;32528;45.712;9.192;2022-11-18T00:34:48;12.50;99.90
28460;DHT22;32528;45.712;9.192;2022-11-18T00:36:49;12.60;99.90
28460;DHT22;32528;45.712;9.192;2022-11-18T00:38:50;12.60;99.90
28460;DHT22;32528;45.712;9.192;2022-11-18T00:41:01;12.60;99.90
28460;DHT22;32528;45.712;9.192;2022-11-18T00:43:01;12.60;99.90
28460;DHT22;32528;45.712;9.192;2022-11-18T00:45:03;12.70;99.90
28460;DHT22;32528;45.712;9.192;2022-11-18T00:47:04;12.70;99.90
28460;DHT22;32528;45.712;9.192;2022-11-18T00:49:05;12.70;99.90
28460;DHT22;32528;45.712;9.192;2022-11-18T00:51:13;12.70;99.90
28460;DHT22;32528;45.712;9.192;2022-11-18T00:53:14;12.70;99.90
28460;DHT22;32528;45.712;9.192;2022-11-18T00:55:15;12.70;99.90
28460;DHT22;32528;45.712;9.192;2022-11-18T00:57:16;12.70;99.90
28460;DHT22;32528;45.712;9.192;2022-11-18T00:59:16;12.60;99.90
28460;DHT22;32528;45.712;9.192;2022-11-18T01:01:17;12.50;99.90
28460;DHT22;32528;45.712;9.192;2022-11-18T01:03:18;12.50;99.90
28460;DHT22;32528;45.712;9.192;2022-11-18T01:05:19;12.50;99.90
28460;DHT22;32528;45.712;9.192;2022-11-18T01:07:19;12.50;99.90
28460;DHT22;32528;45.712;9.192;2022-11-18T01:09:20;12.50;99.90
28460;DHT22;32528;45.712;9.192;2022-11-18T01:11:21;12.50;99.90
28460;DHT22;32528;45.712;9.192;2022-11-18T01:13:40;12.50;99.90
28460;DHT22;32528;45.712;9.192;2022-11-18T01:15:42;12.50;99.90
28460;DHT22;32528;45.712;9.192;2022-11-18T01:17:43;12.50;99.90
28460;DHT22;32528;45.712;9.192;2022-11-18T01:19:44;12.60;99.90
28460;DHT22;32528;45.712;9.192;2022-11-18T01:21:44;12.60;99.90
28460;DHT22;32528;45.712;9.192;2022-11-18T01:23:45;12.50;99.90
28460;DHT22;32528;45.712;9.192;2022-11-18T01:25:46;12.50;99.90
28460;DHT22;32528;45.712;9.192;2022-11-18T01:27:47;12.50;99.90
28460;DHT22;32528;45.712;9.192;2022-11-18T01:29:48;12.40;99.90
28460;DHT22;32528;45.712;9.192;2022-11-18T01:31:49;12.40;99.90
28460;DHT22;32528;45.712;9.192;2022-11-18T01:33:49;12.40;99.90
28460;DHT22;32528;45.712;9.192;2022-11-18T01:35:50;12.50;99.90
28460;DHT22;32528;45.712;9.192;2022-11-18T01:37:51;12.50;99.90
28460;DHT22;32528;45.712;9.192;2022-11-18T01:39:52;12.50;99.90
28460;DHT22;32528;45.712;9.192;2022-11-18T01:41:53;12.50;99.90
28460;DHT22;32528;45.712;9.192;2022-11-18T01:43:55;12.50;99.90
28460;DHT22;32528;45.712;9.192;2022-11-18T01:45:55;12.40;99.90
28460;DHT22;32528;45.712;9.192;2022-11-18T01:47:58;12.50;99.90
28460;DHT22;32528;45.712;9.192;2022-11-18T01:49:59;12.40;99.90
28460;DHT22;32528;45.712;9.192;2022-11-18T01:52:01;12.40;99.90
28460;DHT22;32528;45.712;9.192;2022-11-18T01:54:05;12.40;99.90
28460;DHT22;32528;45.712;9.192;2022-11-18T01:56:10;12.50;99.90
28460;DHT22;32528;45.712;9.192;2022-11-18T01:58:12;12.50;99.90
28460;DHT22;32528;45.712;9.192;2022-11-18T02:00:15;12.50;99.90
28460;DHT22;32528;45.712;9.192;2022-11-18T02:02:15;12.60;99.90
28460;DHT22;32528;45.712;9.192;2022-11-18T02:04:16;12.40;99.90
28460;DHT22;32528;45.712;9.192;2022-11-18T02:06:17;12.50;99.90
28460;DHT22;32528;45.712;9.192;2022-11-18T02:08:18;12.50;99.90
28460;DHT22;32528;45.712;9.192;2022-11-18T02:10:20;12.50;99.90
28460;DHT22;32528;45.712;9.192;2022-11-18T02:12:21;12.50;99.90
28460;DHT22;32528;45.712;9.192;2022-11-18T02:16:25;12.50;99.90
28460;DHT22;32528;45.712;9.192;2022-11-18T02:20:41;12.60;99.90
28460;DHT22;32528;45.712;9.192;2022-11-18T02:27:29;12.70;99.90
28460;DHT22;32528;45.712;9.192;2022-11-18T02:33:50;12.70;99.90
28460;DHT22;32528;45.712;9.192;2022-11-18T02:36:00;12.70;99.90
28460;DHT22;32528;45.712;9.192;2022-11-18T02:38:08;12.60;99.90
28460;DHT22;32528;45.712;9.192;2022-11-18T02:40:18;12.70;99.90
28460;DHT22;32528;45.712;9.192;2022-11-18T02:42:20;12.70;99.90
28460;DHT22;32528;45.712;9.192;2022-11-18T02:44:23;12.70;99.90
28460;DHT22;32528;45.712;9.192;2022-11-18T02:46:31;12.70;99.90
28460;DHT22;32528;45.712;9.192;2022-11-18T02:48:34;12.70;99.90
28460;DHT22;32528;45.712;9.192;2022-11-18T02:50:35;12.80;99.90
28460;DHT22;32528;45.712;9.192;2022-11-18T02:52:37;12.80;99.90
28460;DHT22;32528;45.712;9.192;2022-11-18T02:54:38;12.80;99.90
28460;DHT22;32528;45.712;9.192;2022-11-18T02:56:41;12.80;99.90
28460;DHT22;32528;45.712;9.192;2022-11-18T02:58:42;12.80;99.90
28460;DHT22;32528;45.712;9.192;2022-11-18T03:00:43;12.80;99.90
28460;DHT22;32528;45.712;9.192;2022-11-18T03:02:45;12.80;99.90
28460;DHT22;32528;45.712;9.192;2022-11-18T03:04:47;12.80;99.90
28460;DHT22;32528;45.712;9.192;2022-11-18T03:06:57;12.80;99.90
28460;DHT22;32528;45.712;9.192;2022-11-18T03:09:13;12.80;99.90
28460;DHT22;32528;45.712;9.192;2022-11-18T03:11:18;12.80;99.90
28460;DHT22;32528;45.712;9.192;2022-11-18T03:13:23;12.80;99.90
28460;DHT22;32528;45.712;9.192;2022-11-18T03:20:31;12.80;99.90
28460;DHT22;32528;45.712;9.192;2022-11-18T03:22:49;12.80;99.90
28460;DHT22;32528;45.712;9.192;2022-11-18T03:24:47;12.90;99.90
28460;DHT22;32528;45.712;9.192;2022-11-18T03:26:51;12.80;99.90
28460;DHT22;32528;45.712;9.192;2022-11-18T03:28:55;12.80;99.90
28460;DHT22;32528;45.712;9.192;2022-11-18T03:33:44;12.70;99.90
28460;DHT22;32528;45.712;9.192;2022-11-18T03:35:46;12.60;99.90
28460;DHT22;32528;45.712;9.192;2022-11-18T03:37:48;12.60;99.90
28460;DHT22;32528;45.712;9.192;2022-11-18T03:39:52;12.50;99.90
28460;DHT22;32528;45.712;9.192;2022-11-18T03:41:57;12.50;99.90
28460;DHT22;32528;45.712;9.192;2022-11-18T03:44:03;12.50;99.90
28460;DHT22;32528;45.712;9.192;2022-11-18T03:46:15;12.50;99.90
28460;DHT22;32528;45.712;9.192;2022-11-18T03:48:17;12.60;99.90
28460;DHT22;32528;45.712;9.192;2022-11-18T03:50:19;12.60;99.90
28460;DHT22;32528;45.712;9.192;2022-11-18T03:52:23;12.70;99.90
28460;DHT22;32528;45.712;9.192;2022-11-18T03:54:29;12.70;99.90
28460;DHT22;32528;45.712;9.192;2022-11-18T03:56:31;12.70;99.90
28460;DHT22;32528;45.712;9.192;2022-11-18T03:58:37;12.70;99.90
28460;DHT22;32528;45.712;9.192;2022-11-18T04:00:41;12.70;99.90
28460;DHT22;32528;45.712;9.192;2022-11-18T04:02:42;12.70;99.90
28460;DHT22;32528;45.712;9.192;2022-11-18T04:04:44;12.80;99.90
28460;DHT22;32528;45.712;9.192;2022-11-18T04:06:51;12.70;99.90
28460;DHT22;32528;45.712;9.192;2022-11-18T04:08:54;12.80;99.90
28460;DHT22;32528;45.712;9.192;2022-11-18T04:11:10;12.80;99.90
28460;DHT22;32528;45.712;9.192;2022-11-18T04:13:34;12.80;99.90
28460;DHT22;32528;45.712;9.192;2022-11-18T04:15:36;12.80;99.90
28460;DHT22;32528;45.712;9.192;2022-11-18T04:17:42;12.80;99.90
28460;DHT22;32528;45.712;9.192;2022-11-18T04:19:44;12.80;99.90
28460;DHT22;32528;45.712;9.192;2022-11-18T04:21:48;12.80;99.90
28460;DHT22;32528;45.712;9.192;2022-11-18T04:23:49;12.80;99.90
28460;DHT22;32528;45.712;9.192;2022-11-18T04:25:50;12.70;99.90
28460;DHT22;32528;45.712;9.192;2022-11-18T04:27:51;12.60;99.90
28460;DHT22;32528;45.712;9.192;2022-11-18T04:29:51;12.60;99.90
28460;DHT22;32528;45.712;9.192;2022-11-18T04:31:52;12.50;99.90
28460;DHT22;32528;45.712;9.192;2022-11-18T04:33:52;12.50;99.90
28460;DHT22;32528;45.712;9.192;2022-11-18T04:35:53;12.40;99.90
28460;DHT22;32528;45.712;9.192;2022-11-18T04:37:54;12.30;99.90
28460;DHT22;32528;45.712;9.192;2022-11-18T04:39:54;12.30;99.90
28460;DHT22;32528;45.712;9.192;2022-11-18T04:41:55;12.20;99.90
28460;DHT22;32528;45.712;9.192;2022-11-18T04:43:55;12.20;99.90
28460;DHT22;32528;45.712;9.192;2022-11-18T04:45:56;12.20;99.90
28460;DHT22;32528;45.712;9.192;2022-11-18T04:47:57;12.20;99.90
28460;DHT22;32528;45.712;9.192;2022-11-18T04:49:57;12.00;99.90
28460;DHT22;32528;45.712;9.192;2022-11-18T04:51:58;12.10;99.90
28460;DHT22;32528;45.712;9.192;2022-11-18T04:53:59;12.00;99.90
28460;DHT22;32528;45.712;9.192;2022-11-18T04:56:03;12.10;99.90
28460;DHT22;32528;45.712;9.192;2022-11-18T04:58:04;12.10;99.90
28460;DHT22;32528;45.712;9.192;2022-11-18T05:00:05;12.20;99.90
28460;DHT22;32528;45.712;9.192;2022-11-18T05:02:07;12.30;99.90
28460;DHT22;32528;45.712;9.192;2022-11-18T05:04:11;12.30;99.90
28460;DHT22;32528;45.712;9.192;2022-11-18T05:06:12;12.30;99.90
28460;DHT22;32528;45.712;9.192;2022-11-18T05:08:12;12.40;99.90
28460;DHT22;32528;45.712;9.192;2022-11-18T05:10:13;12.40;99.90
28460;DHT22;32528;45.712;9.192;2022-11-18T05:12:14;12.40;99.90
28460;DHT22;32528;45.712;9.192;2022-11-18T05:14:33;12.50;99.90
28460;DHT22;32528;45.712;9.192;2022-11-18T05:16:34;12.50;99.90
28460;DHT22;32528;45.712;9.192;2022-11-18T05:18:35;12.50;99.90
28460;DHT22;32528;45.712;9.192;2022-11-18T05:20:36;12.50;99.90
28460;DHT22;32528;45.712;9.192;2022-11-18T05:22:36;12.40;99.90
28460;DHT22;32528;45.712;9.192;2022-11-18T05:24:37;12.40;99.90
28460;DHT22;32528;45.712;9.192;2022-11-18T05:26:38;12.40;99.90
28460;DHT22;32528;45.712;9.192;2022-11-18T05:28:38;12.40;99.90
28460;DHT22;32528;45.712;9.192;2022-11-18T05:30:39;12.30;99.90
28460;DHT22;32528;45.712;9.192;2022-11-18T05:32:40;12.40;99.90
28460;DHT22;32528;45.712;9.192;2022-11-18T05:34:41;12.50;99.90
28460;DHT22;32528;45.712;9.192;2022-11-18T05:36:42;12.40;99.90
28460;DHT22;32528;45.712;9.192;2022-11-18T05:38:43;12.40;99.90
28460;DHT22;32528;45.712;9.192;2022-11-18T05:40:44;12.50;99.90
28460;DHT22;32528;45.712;9.192;2022-11-18T05:42:44;12.50;99.90
28460;DHT22;32528;45.712;9.192;2022-11-18T05:45:03;12.50;99.90
28460;DHT22;32528;45.712;9.192;2022-11-18T05:47:04;12.60;99.90
28460;DHT22;32528;45.712;9.192;2022-11-18T05:49:05;12.60;99.90
28460;DHT22;32528;45.712;9.192;2022-11-18T05:51:07;12.60;99.90
28460;DHT22;32528;45.712;9.192;2022-11-18T05:53:07;12.60;99.90
28460;DHT22;32528;45.712;9.192;2022-11-18T05:55:08;12.60;99.90
28460;DHT22;32528;45.712;9.192;2022-11-18T05:57:10;12.60;99.90
28460;DHT22;32528;45.712;9.192;2022-11-18T05:59:10;12.60;99.90
28460;DHT22;32528;45.712;9.192;2022-11-18T06:01:11;12.60;99.90
28460;DHT22;32528;45.712;9.192;2022-11-18T06:03:23;12.50;99.90
28460;DHT22;32528;45.712;9.192;2022-11-18T06:05:24;12.50;99.90
28460;DHT22;32528;45.712;9.192;2022-11-18T06:07:36;12.40;99.90
28460;DHT22;32528;45.712;9.192;2022-11-18T06:09:39;12.40;99.90
28460;DHT22;32528;45.712;9.192;2022-11-18T06:11:47;12.40;99.90
28460;DHT22;32528;45.712;9.192;2022-11-18T06:13:59;12.20;99.90
28460;DHT22;32528;45.712;9.192;2022-11-18T06:16:01;12.20;99.90
28460;DHT22;32528;45.712;9.192;2022-11-18T06:18:05;12.20;99.90
28460;DHT22;32528;45.712;9.192;2022-11-18T06:20:08;12.20;99.90
28460;DHT22;32528;45.712;9.192;2022-11-18T06:22:09;12.10;99.90
28460;DHT22;32528;45.712;9.192;2022-11-18T06:24:10;12.10;99.90
28460;DHT22;32528;45.712;9.192;2022-11-18T06:26:12;12.00;99.90
28460;DHT22;32528;45.712;9.192;2022-11-18T06:28:14;12.00;99.90
28460;DHT22;32528;45.712;9.192;2022-11-18T06:30:15;12.00;99.90
28460;DHT22;32528;45.712;9.192;2022-11-18T06:32:15;12.00;99.90
28460;DHT22;32528;45.712;9.192;2022-11-18T06:34:16;12.10;99.90
28460;DHT22;32528;45.712;9.192;2022-11-18T06:36:16;12.00;99.90
28460;DHT22;32528;45.712;9.192;2022-11-18T06:38:17;12.00;99.90
28460;DHT22;32528;45.712;9.192;2022-11-18T06:40:18;12.00;99.90
28460;DHT22;32528;45.712;9.192;2022-11-18T06:42:18;12.00;99.90
28460;DHT22;32528;45.712;9.192;2022-11-18T06:44:37;11.90;99.90
28460;DHT22;32528;45.712;9.192;2022-11-18T06:46:38;11.90;99.90
28460;DHT22;32528;45.712;9.192;2022-11-18T06:48:57;11.90;99.90
28460;DHT22;32528;45.712;9.192;2022-11-18T06:50:57;12.00;99.90
28460;DHT22;32528;45.712;9.192;2022-11-18T06:52:59;12.00;99.90
28460;DHT22;32528;45.712;9.192;2022-11-18T06:54:59;12.00;99.90
28460;DHT22;32528;45.712;9.192;2022-11-18T06:57:00;12.10;99.90
28460;DHT22;32528;45.712;9.192;2022-11-18T06:59:00;12.20;99.90
28460;DHT22;32528;45.712;9.192;2022-11-18T07:01:17;12.20;99.90
28460;DHT22;32528;45.712;9.192;2022-11-18T07:03:24;12.30;99.90
28460;DHT22;32528;45.712;9.192;2022-11-18T07:05:26;12.30;99.90
28460;DHT22;32528;45.712;9.192;2022-11-18T07:07:27;12.30;99.90
28460;DHT22;32528;45.712;9.192;2022-11-18T07:09:30;12.40;99.90
28460;DHT22;32528;45.712;9.192;2022-11-18T07:11:31;12.40;99.90
28460;DHT22;32528;45.712;9.192;2022-11-18T07:13:31;12.40;99.90
28460;DHT22;32528;45.712;9.192;2022-11-18T07:15:32;12.40;99.90
28460;DHT22;32528;45.712;9.192;2022-11-18T07:17:33;12.40;99.90
28460;DHT22;32528;45.712;9.192;2022-11-18T07:19:34;12.40;99.90
28460;DHT22;32528;45.712;9.192;2022-11-18T07:21:35;12.30;99.90
28460;DHT22;32528;45.712;9.192;2022-11-18T07:23:38;12.30;99.90
28460;DHT22;32528;45.712;9.192;2022-11-18T07:25:39;12.30;99.90
28460;DHT22;32528;45.712;9.192;2022-11-18T07:27:40;12.20;99.90
28460;DHT22;32528;45.712;9.192;2022-11-18T07:29:46;12.20;99.90
28460;DHT22;32528;45.712;9.192;2022-11-18T07:31:47;12.20;99.90
28460;DHT22;32528;45.712;9.192;2022-11-18T07:34:08;12.10;99.90
28460;DHT22;32528;45.712;9.192;2022-11-18T07:36:12;12.10;99.90
28460;DHT22;32528;45.712;9.192;2022-11-18T07:38:17;12.10;99.90
28460;DHT22;32528;45.712;9.192;2022-11-18T07:40:18;12.00;99.90
28460;DHT22;32528;45.712;9.192;2022-11-18T07:42:18;12.00;99.90
28460;DHT22;32528;45.712;9.192;2022-11-18T07:44:22;12.00;99.90
28460;DHT22;32528;45.712;9.192;2022-11-18T07:46:34;11.90;99.90
28460;DHT22;32528;45.712;9.192;2022-11-18T07:48:40;11.90;99.90
28460;DHT22;32528;45.712;9.192;2022-11-18T07:50:43;12.00;99.90
28460;DHT22;32528;45.712;9.192;2022-11-18T07:52:43;11.90;99.90
28460;DHT22;32528;45.712;9.192;2022-11-18T07:54:44;11.90;99.90
28460;DHT22;32528;45.712;9.192;2022-11-18T07:57:00;11.90;99.90
28460;DHT22;32528;45.712;9.192;2022-11-18T07:59:02;11.90;99.90
28460;DHT22;32528;45.712;9.192;2022-11-18T08:01:15;12.00;99.90
28460;DHT22;32528;45.712;9.192;2022-11-18T08:03:24;11.90;99.90
28460;DHT22;32528;45.712;9.192;2022-11-18T08:05:26;12.10;99.90
28460;DHT22;32528;45.712;9.192;2022-11-18T08:07:37;12.10;99.90
28460;DHT22;32528;45.712;9.192;2022-11-18T08:09:38;12.20;99.90
28460;DHT22;32528;45.712;9.192;2022-11-18T08:11:43;12.30;99.90
28460;DHT22;32528;45.712;9.192;2022-11-18T08:13:52;12.50;99.90
28460;DHT22;32528;45.712;9.192;2022-11-18T08:15:57;12.60;99.90
28460;DHT22;32528;45.712;9.192;2022-11-18T08:18:00;12.70;99.90
28460;DHT22;32528;45.712;9.192;2022-11-18T08:20:02;12.90;99.90
28460;DHT22;32528;45.712;9.192;2022-11-18T08:22:03;12.90;99.90
28460;DHT22;32528;45.712;9.192;2022-11-18T08:24:04;13.00;99.90
28460;DHT22;32528;45.712;9.192;2022-11-18T08:29:02;12.90;99.90
28460;DHT22;32528;45.712;9.192;2022-11-18T08:31:09;12.80;99.90
28460;DHT22;32528;45.712;9.192;2022-11-18T08:33:10;12.90;99.90
28460;DHT22;32528;45.712;9.192;2022-11-18T08:35:13;13.00;99.90
28460;DHT22;32528;45.712;9.192;2022-11-18T08:37:14;13.10;99.90
28460;DHT22;32528;45.712;9.192;2022-11-18T08:39:18;13.10;99.90
28460;DHT22;32528;45.712;9.192;2022-11-18T08:41:40;13.10;99.90
28460;DHT22;32528;45.712;9.192;2022-11-18T08:43:40;13.10;99.90
28460;DHT22;32528;45.712;9.192;2022-11-18T08:45:43;13.10;99.90
28460;DHT22;32528;45.712;9.192;2022-11-18T08:48:01;13.10;99.90
28460;DHT22;32528;45.712;9.192;2022-11-18T08:50:03;13.10;99.90
28460;DHT22;32528;45.712;9.192;2022-11-18T08:52:04;13.20;99.90
28460;DHT22;32528;45.712;9.192;2022-11-18T08:54:04;13.20;99.90
28460;DHT22;32528;45.712;9.192;2022-11-18T08:56:05;13.10;99.90
28460;DHT22;32528;45.712;9.192;2022-11-18T08:58:06;13.20;99.90
28460;DHT22;32528;45.712;9.192;2022-11-18T09:00:07;13.20;99.90
28460;DHT22;32528;45.712;9.192;2022-11-18T09:02:14;13.30;99.90
28460;DHT22;32528;45.712;9.192;2022-11-18T09:04:15;13.30;99.90
28460;DHT22;32528;45.712;9.192;2022-11-18T09:06:16;13.40;99.90
28460;DHT22;32528;45.712;9.192;2022-11-18T09:08:18;13.50;99.90
28460;DHT22;32528;45.712;9.192;2022-11-18T09:10:19;13.50;99.90
28460;DHT22;32528;45.712;9.192;2022-11-18T09:12:20;13.60;99.90
28460;DHT22;32528;45.712;9.192;2022-11-18T09:14:21;13.60;99.90
28460;DHT22;32528;45.712;9.192;2022-11-18T09:16:22;13.60;99.90
28460;DHT22;32528;45.712;9.192;2022-11-18T09:18:23;13.80;99.90
28460;DHT22;32528;45.712;9.192;2022-11-18T09:20:23;13.90;99.90
28460;DHT22;32528;45.712;9.192;2022-11-18T09:22:24;13.90;99.90
28460;DHT22;32528;45.712;9.192;2022-11-18T09:24:25;13.90;99.90
28460;DHT22;32528;45.712;9.192;2022-11-18T09:26:26;13.90;99.90
28460;DHT22;32528;45.712;9.192;2022-11-18T09:28:27;13.80;99.90
28460;DHT22;32528;45.712;9.192;2022-11-18T09:30:28;13.80;99.90
28460;DHT22;32528;45.712;9.192;2022-11-18T09:32:29;13.70;99.90
28460;DHT22;32528;45.712;9.192;2022-11-18T09:34:29;13.80;99.90
28460;DHT22;32528;45.712;9.192;2022-11-18T09:36:30;13.70;99.90
28460;DHT22;32528;45.712;9.192;2022-11-18T09:38:31;13.80;99.90
28460;DHT22;32528;45.712;9.192;2022-11-18T09:40:31;13.80;99.90
28460;DHT22;32528;45.712;9.192;2022-11-18T09:42:38;13.90;99.90
28460;DHT22;32528;45.712;9.192;2022-11-18T09:49:13;13.90;99.90
28460;DHT22;32528;45.712;9.192;2022-11-18T09:51:15;14.00;99.90
28460;DHT22;32528;45.712;9.192;2022-11-18T09:53:19;14.10;99.90
28460;DHT22;32528;45.712;9.192;2022-11-18T09:55:20;14.10;99.90
28460;DHT22;32528;45.712;9.192;2022-11-18T09:57:23;14.20;99.90
28460;DHT22;32528;45.712;9.192;2022-11-18T09:59:26;14.20;99.90
28460;DHT22;32528;45.712;9.192;2022-11-18T10:01:27;14.20;99.90
28460;DHT22;32528;45.712;9.192;2022-11-18T10:03:29;14.30;99.90
28460;DHT22;32528;45.712;9.192;2022-11-18T10:05:32;14.30;99.90
28460;DHT22;32528;45.712;9.192;2022-11-18T10:07:39;14.40;99.90
28460;DHT22;32528;45.712;9.192;2022-11-18T10:09:41;14.50;99.90
28460;DHT22;32528;45.712;9.192;2022-11-18T10:11:45;14.50;99.90
28460;DHT22;32528;45.712;9.192;2022-11-18T10:20:12;14.60;99.90
28460;DHT22;32528;45.712;9.192;2022-11-18T10:24:18;14.80;99.90
28460;DHT22;32528;45.712;9.192;2022-11-18T10:26:30;14.80;99.60
28460;DHT22;32528;45.712;9.192;2022-11-18T10:28:30;14.80;99.30
28460;DHT22;32528;45.712;9.192;2022-11-18T10:30:31;14.80;99.40
28460;DHT22;32528;45.712;9.192;2022-11-18T10:32:32;14.90;99.00
28460;DHT22;32528;45.712;9.192;2022-11-18T10:34:33;14.90;99.00
28460;DHT22;32528;45.712;9.192;2022-11-18T10:36:34;14.90;97.90
28460;DHT22;32528;45.712;9.192;2022-11-18T10:38:37;15.00;98.10
28460;DHT22;32528;45.712;9.192;2022-11-18T10:40:43;15.10;98.40
28460;DHT22;32528;45.712;9.192;2022-11-18T10:42:45;15.10;97.70
28460;DHT22;32528;45.712;9.192;2022-11-18T10:44:46;15.20;97.60
28460;DHT22;32528;45.712;9.192;2022-11-18T10:46:47;15.30;97.50
28460;DHT22;32528;45.712;9.192;2022-11-18T10:48:52;15.30;97.60
28460;DHT22;32528;45.712;9.192;2022-11-18T10:51:22;15.30;96.40
28460;DHT22;32528;45.712;9.192;2022-11-18T10:55:31;15.40;96.90
28460;DHT22;32528;45.712;9.192;2022-11-18T10:57:36;15.40;96.90
28460;DHT22;32528;45.712;9.192;2022-11-18T11:01:43;15.50;96.30
28460;DHT22;32528;45.712;9.192;2022-11-18T11:06:26;15.60;96.20
28460;DHT22;32528;45.712;9.192;2022-11-18T11:08:29;15.70;96.70
28460;DHT22;32528;45.712;9.192;2022-11-18T11:10:30;15.70;97.30
28460;DHT22;32528;45.712;9.192;2022-11-18T11:12:35;15.80;97.50
28460;DHT22;32528;45.712;9.192;2022-11-18T11:16:58;15.90;97.80
28460;DHT22;32528;45.712;9.192;2022-11-18T11:18:59;15.90;97.70
28460;DHT22;32528;45.712;9.192;2022-11-18T11:21:01;15.90;97.80
28460;DHT22;32528;45.712;9.192;2022-11-18T11:23:07;15.90;97.60
28460;DHT22;32528;45.712;9.192;2022-11-18T11:25:12;15.90;97.70
28460;DHT22;32528;45.712;9.192;2022-11-18T11:29:22;15.90;97.60
28460;DHT22;32528;45.712;9.192;2022-11-18T11:33:32;15.80;97.00
28460;DHT22;32528;45.712;9.192;2022-11-18T11:51:00;16.10;96.40
28460;DHT22;32528;45.712;9.192;2022-11-18T11:55:17;16.00;96.00
28460;DHT22;32528;45.712;9.192;2022-11-18T12:05:44;16.10;95.90
28460;DHT22;32528;45.712;9.192;2022-11-18T12:07:53;16.10;96.40
28460;DHT22;32528;45.712;9.192;2022-11-18T12:14:37;16.20;95.90
28460;DHT22;32528;45.712;9.192;2022-11-18T12:16:41;16.30;96.10
28460;DHT22;32528;45.712;9.192;2022-11-18T12:19:27;16.30;95.60
28460;DHT22;32528;45.712;9.192;2022-11-18T12:21:39;16.30;96.00
28460;DHT22;32528;45.712;9.192;2022-11-18T12:23:31;16.40;95.70
28460;DHT22;32528;45.712;9.192;2022-11-18T12:31:59;16.40;95.50
28460;DHT22;32528;45.712;9.192;2022-11-18T12:34:05;16.40;95.30
28460;DHT22;32528;45.712;9.192;2022-11-18T12:36:26;16.50;95.50
28460;DHT22;32528;45.712;9.192;2022-11-18T12:38:28;16.40;95.40
28460;DHT22;32528;45.712;9.192;2022-11-18T12:40:30;16.50;95.70
28460;DHT22;32528;45.712;9.192;2022-11-18T12:42:44;16.60;95.60
28460;DHT22;32528;45.712;9.192;2022-11-18T12:45:43;16.60;95.20
28460;DHT22;32528;45.712;9.192;2022-11-18T12:51:43;16.70;94.40
28460;DHT22;32528;45.712;9.192;2022-11-18T12:53:48;16.80;94.50
28460;DHT22;32528;45.712;9.192;2022-11-18T12:55:49;16.80;94.80
28460;DHT22;32528;45.712;9.192;2022-11-18T12:57:50;16.90;95.00
28460;DHT22;32528;45.712;9.192;2022-11-18T12:59:50;16.90;95.10
28460;DHT22;32528;45.712;9.192;2022-11-18T13:02:00;16.90;94.60
28460;DHT22;32528;45.712;9.192;2022-11-18T13:06:17;17.00;92.10
28460;DHT22;32528;45.712;9.192;2022-11-18T13:08:19;17.00;88.50
28460;DHT22;32528;45.712;9.192;2022-11-18T13:10:22;17.00;86.90
28460;DHT22;32528;45.712;9.192;2022-11-18T13:12:25;17.00;87.70
28460;DHT22;32528;45.712;9.192;2022-11-18T13:16:46;17.10;84.30
28460;DHT22;32528;45.712;9.192;2022-11-18T13:19:07;17.10;84.20
28460;DHT22;32528;45.712;9.192;2022-11-18T13:21:08;17.10;83.50
28460;DHT22;32528;45.712;9.192;2022-11-18T13:23:28;17.20;84.20
28460;DHT22;32528;45.712;9.192;2022-11-18T13:25:48;17.10;85.40
28460;DHT22;32528;45.712;9.192;2022-11-18T13:28:13;17.20;85.70
28460;DHT22;32528;45.712;9.192;2022-11-18T13:30:11;17.10;84.60
28460;DHT22;32528;45.712;9.192;2022-11-18T13:36:18;17.20;78.30
28460;DHT22;32528;45.712;9.192;2022-11-18T13:38:20;17.30;79.10
28460;DHT22;32528;45.712;9.192;2022-11-18T13:41:04;17.30;76.70
28460;DHT22;32528;45.712;9.192;2022-11-18T13:43:04;17.30;78.00
28460;DHT22;32528;45.712;9.192;2022-11-18T13:45:04;17.30;77.00
28460;DHT22;32528;45.712;9.192;2022-11-18T13:49:09;17.30;76.30
28460;DHT22;32528;45.712;9.192;2022-11-18T13:51:12;17.30;76.00
28460;DHT22;32528;45.712;9.192;2022-11-18T13:57:15;17.30;76.70
28460;DHT22;32528;45.712;9.192;2022-11-18T13:59:21;17.30;76.50
28460;DHT22;32528;45.712;9.192;2022-11-18T14:01:24;17.30;75.60
28460;DHT22;32528;45.712;9.192;2022-11-18T14:03:35;17.30;74.40
28460;DHT22;32528;45.712;9.192;2022-11-18T14:05:40;17.30;76.50
28460;DHT22;32528;45.712;9.192;2022-11-18T14:07:41;17.30;75.70
28460;DHT22;32528;45.712;9.192;2022-11-18T14:09:54;17.30;74.10
28460;DHT22;32528;45.712;9.192;2022-11-18T14:12:06;17.30;74.30
28460;DHT22;32528;45.712;9.192;2022-11-18T14:16:33;17.30;72.50
28460;DHT22;32528;45.712;9.192;2022-11-18T14:18:35;17.30;72.80
28460;DHT22;32528;45.712;9.192;2022-11-18T14:20:36;17.30;72.20
28460;DHT22;32528;45.712;9.192;2022-11-18T14:22:37;17.30;71.30
28460;DHT22;32528;45.712;9.192;2022-11-18T14:24:41;17.30;69.20
28460;DHT22;32528;45.712;9.192;2022-11-18T14:26:41;17.30;70.70
28460;DHT22;32528;45.712;9.192;2022-11-18T14:28:47;17.20;69.40
28460;DHT22;32528;45.712;9.192;2022-11-18T14:30:54;17.20;71.00
28460;DHT22;32528;45.712;9.192;2022-11-18T14:35:07;17.10;69.40
28460;DHT22;32528;45.712;9.192;2022-11-18T14:37:10;17.20;69.40
28460;DHT22;32528;45.712;9.192;2022-11-18T14:41:19;17.10;69.10
28460;DHT22;32528;45.712;9.192;2022-11-18T14:43:40;17.00;69.40
28460;DHT22;32528;45.712;9.192;2022-11-18T14:45:42;17.00;70.40
28460;DHT22;32528;45.712;9.192;2022-11-18T14:47:44;17.00;70.00
28460;DHT22;32528;45.712;9.192;2022-11-18T14:49:44;16.90;70.80
28460;DHT22;32528;45.712;9.192;2022-11-18T14:51:45;16.80;70.70
28460;DHT22;32528;45.712;9.192;2022-11-18T14:53:46;16.80;71.40